createdAt,value
2022-10-30T00:00:56.741Z,18.30
2022-10-30T00:03:25.515Z,18.30
2022-10-30T00:05:56.758Z,18.20
2022-10-30T00:08:27.099Z,18.20
2022-10-30T00:10:55.444Z,18.20
2022-10-30T00:13:23.911Z,18.20
2022-10-30T00:15:54.545Z,18.20
2022-10-30T00:18:24.286Z,18.20
2022-10-30T00:20:54.036Z,18.20
2022-10-30T00:23:24.155Z,18.20
2022-10-30T00:25:53.413Z,18.20
2022-10-30T00:28:22.635Z,18.20
2022-10-30T00:30:51.407Z,18.20
2022-10-30T00:33:19.495Z,18.20
2022-10-30T00:35:51.171Z,18.20
2022-10-30T00:38:19.290Z,18.20
2022-10-30T00:40:48.839Z,18.20
2022-10-30T00:43:35.537Z,18.20
2022-10-30T00:46:08.860Z,18.10
2022-10-30T00:48:37.651Z,18.10
2022-10-30T00:51:10.252Z,18.10
2022-10-30T00:53:38.858Z,18.10
2022-10-30T00:56:12.811Z,18.00
2022-10-30T00:58:47.480Z,18.00
2022-10-30T01:01:21.168Z,18.00
2022-10-30T01:03:51.855Z,18.00
2022-10-30T01:06:20.709Z,18.00
2022-10-30T01:08:50.714Z,17.90
2022-10-30T01:11:24.028Z,17.90
2022-10-30T01:13:56.960Z,17.90
2022-10-30T01:16:41.072Z,17.90
2022-10-30T01:19:20.431Z,17.90
2022-10-30T01:21:59.756Z,17.90
2022-10-30T01:24:39.317Z,17.80
2022-10-30T01:27:24.001Z,17.80
2022-10-30T01:30:03.153Z,17.80
2022-10-30T01:32:49.016Z,17.80
2022-10-30T01:35:22.976Z,17.80
2022-10-30T01:37:57.648Z,17.80
2022-10-30T01:40:26.933Z,17.80
2022-10-30T01:46:51.170Z,17.80
2022-10-30T01:49:48.795Z,17.80
2022-10-30T01:52:23.753Z,17.80
2022-10-30T01:55:00.822Z,17.80
2022-10-30T01:57:38.481Z,17.80
2022-10-30T02:00:10.927Z,17.70
2022-10-30T02:02:41.037Z,17.70
2022-10-30T02:05:11.504Z,17.70
2022-10-30T02:07:40.138Z,17.70
2022-10-30T02:10:09.210Z,17.70
2022-10-30T02:12:37.951Z,17.70
2022-10-30T02:15:07.472Z,17.60
2022-10-30T02:17:36.035Z,17.70
2022-10-30T02:20:06.683Z,17.70
2022-10-30T02:22:36.785Z,17.70
2022-10-30T02:25:05.714Z,17.60
2022-10-30T02:27:34.250Z,17.60
2022-10-30T02:30:02.834Z,17.60
2022-10-30T02:32:31.275Z,17.60
2022-10-30T02:35:00.192Z,17.60
2022-10-30T02:37:28.787Z,17.60
2022-10-30T02:39:58.983Z,17.60
2022-10-30T02:42:27.864Z,17.60
2022-10-30T02:44:55.941Z,17.60
2022-10-30T02:47:24.561Z,17.50
2022-10-30T02:49:53.083Z,17.50
2022-10-30T02:52:21.658Z,17.50
2022-10-30T02:54:49.741Z,17.50
2022-10-30T02:57:19.625Z,17.50
2022-10-30T02:59:47.818Z,17.40
2022-10-30T03:02:16.982Z,17.40
2022-10-30T03:04:45.137Z,17.40
2022-10-30T03:07:14.037Z,17.40
2022-10-30T03:09:42.753Z,17.40
2022-10-30T03:12:10.815Z,17.40
2022-10-30T03:14:40.955Z,17.40
2022-10-30T03:17:09.746Z,17.30
2022-10-30T03:19:38.477Z,17.30
2022-10-30T03:22:07.050Z,17.30
2022-10-30T03:24:35.584Z,17.30
2022-10-30T03:27:03.597Z,17.30
2022-10-30T03:29:32.162Z,17.30
2022-10-30T03:32:02.345Z,17.30
2022-10-30T03:34:30.590Z,17.30
2022-10-30T03:36:59.190Z,17.30
2022-10-30T03:39:27.246Z,17.20
2022-10-30T03:41:55.734Z,17.20
2022-10-30T03:44:23.987Z,17.20
2022-10-30T03:46:52.501Z,17.20
2022-10-30T03:49:21.926Z,17.10
2022-10-30T03:51:50.884Z,17.20
2022-10-30T03:54:19.050Z,17.10
2022-10-30T03:56:47.616Z,17.10
2022-10-30T03:59:16.113Z,17.10
2022-10-30T04:01:44.393Z,17.10
2022-10-30T04:04:13.021Z,17.10
2022-10-30T04:06:42.820Z,17.10
2022-10-30T04:09:10.980Z,17.10
2022-10-30T04:11:39.491Z,17.10
2022-10-30T04:14:07.675Z,17.10
2022-10-30T04:16:36.183Z,17.10
2022-10-30T04:19:04.322Z,17.00
2022-10-30T04:21:32.823Z,17.00
2022-10-30T04:24:02.318Z,17.00
2022-10-30T04:26:30.435Z,17.00
2022-10-30T04:28:58.942Z,17.00
2022-10-30T04:31:27.856Z,16.90
2022-10-30T04:33:55.923Z,16.90
2022-10-30T04:36:30.733Z,16.90
2022-10-30T04:38:58.830Z,16.90
2022-10-30T04:41:28.880Z,16.80
2022-10-30T04:43:56.964Z,16.80
2022-10-30T04:46:25.462Z,16.80
2022-10-30T04:48:54.331Z,16.80
2022-10-30T04:51:22.539Z,16.80
2022-10-30T04:53:50.780Z,16.70
2022-10-30T04:56:19.353Z,16.70
2022-10-30T04:58:48.829Z,16.70
2022-10-30T05:01:17.032Z,16.70
2022-10-30T05:03:47.095Z,16.60
2022-10-30T05:06:23.566Z,16.60
2022-10-30T05:08:52.582Z,16.60
2022-10-30T05:11:21.475Z,16.60
2022-10-30T05:13:51.978Z,16.60
2022-10-30T05:16:20.692Z,16.60
2022-10-30T05:18:49.253Z,16.50
2022-10-30T05:21:17.395Z,16.50
2022-10-30T05:23:46.011Z,16.50
2022-10-30T05:26:14.090Z,16.50
2022-10-30T05:28:43.258Z,16.50
2022-10-30T05:31:12.947Z,16.50
2022-10-30T05:33:41.474Z,16.50
2022-10-30T05:36:10.353Z,16.50
2022-10-30T05:38:38.945Z,16.40
2022-10-30T05:41:07.031Z,16.50
2022-10-30T05:43:35.714Z,16.40
2022-10-30T05:46:03.838Z,16.40
2022-10-30T05:48:33.798Z,16.40
2022-10-30T05:51:02.970Z,16.30
2022-10-30T05:53:31.086Z,16.40
2022-10-30T05:56:00.146Z,16.40
2022-10-30T05:58:28.233Z,16.40
2022-10-30T06:00:56.836Z,16.40
2022-10-30T06:03:25.395Z,16.40
2022-10-30T06:05:56.062Z,16.40
2022-10-30T06:08:24.753Z,16.40
2022-10-30T06:10:54.734Z,16.40
2022-10-30T06:13:22.946Z,16.40
2022-10-30T06:15:51.219Z,16.40
2022-10-30T06:18:19.418Z,16.40
2022-10-30T06:20:47.976Z,16.40
2022-10-30T06:23:17.579Z,16.40
2022-10-30T06:25:46.513Z,16.40
2022-10-30T06:28:14.873Z,16.30
2022-10-30T06:30:43.061Z,16.30
2022-10-30T06:33:11.946Z,16.30
2022-10-30T06:35:40.098Z,16.30
2022-10-30T06:38:10.114Z,16.30
2022-10-30T06:40:40.191Z,16.30
2022-10-30T06:43:08.249Z,16.30
2022-10-30T06:45:36.788Z,16.30
2022-10-30T06:48:05.579Z,16.30
2022-10-30T06:50:34.195Z,16.30
2022-10-30T06:53:03.488Z,16.30
2022-10-30T06:55:31.986Z,16.30
2022-10-30T06:58:02.564Z,16.30
2022-10-30T07:00:30.857Z,16.30
2022-10-30T07:03:00.845Z,16.30
2022-10-30T07:05:29.328Z,16.30
2022-10-30T07:07:59.094Z,16.30
2022-10-30T07:10:27.676Z,16.30
2022-10-30T07:12:57.783Z,16.30
2022-10-30T07:15:28.346Z,17.10
2022-10-30T07:17:59.267Z,16.30
2022-10-30T07:20:30.293Z,16.30
2022-10-30T07:22:59.100Z,16.30
2022-10-30T07:25:27.688Z,16.30
2022-10-30T07:27:58.248Z,16.20
2022-10-30T07:30:28.639Z,16.20
2022-10-30T07:33:02.805Z,16.20
2022-10-30T07:35:31.964Z,16.20
2022-10-30T07:38:04.817Z,16.20
2022-10-30T07:40:33.504Z,16.30
2022-10-30T07:43:03.388Z,16.30
2022-10-30T07:45:34.214Z,16.30
2022-10-30T07:48:02.631Z,16.30
2022-10-30T07:50:31.554Z,16.30
2022-10-30T07:52:59.806Z,16.30
2022-10-30T07:55:28.387Z,16.30
2022-10-30T07:57:57.325Z,16.30
2022-10-30T08:00:25.643Z,16.30
2022-10-30T08:02:58.840Z,16.40
2022-10-30T08:05:29.913Z,16.30
2022-10-30T08:07:58.714Z,16.30
2022-10-30T08:10:27.193Z,16.30
2022-10-30T08:12:55.435Z,16.30
2022-10-30T08:15:24.452Z,16.40
2022-10-30T08:17:54.508Z,16.40
2022-10-30T08:20:24.563Z,16.40
2022-10-30T08:22:53.873Z,16.40
2022-10-30T08:25:24.807Z,16.40
2022-10-30T08:27:55.983Z,16.40
2022-10-30T08:30:25.248Z,16.50
2022-10-30T08:32:58.800Z,16.50
2022-10-30T08:35:27.311Z,16.50
2022-10-30T08:37:57.027Z,16.50
2022-10-30T08:40:25.782Z,16.60
2022-10-30T08:42:54.502Z,16.60
2022-10-30T08:45:28.130Z,16.70
2022-10-30T08:48:01.921Z,16.70
2022-10-30T08:50:30.955Z,16.80
2022-10-30T08:53:02.747Z,16.80
2022-10-30T08:55:32.197Z,16.90
2022-10-30T08:58:01.094Z,17.00
2022-10-30T09:00:30.176Z,17.00
2022-10-30T09:02:59.182Z,17.10
2022-10-30T09:05:30.436Z,17.10
2022-10-30T09:08:01.726Z,17.20
2022-10-30T09:10:30.608Z,17.30
2022-10-30T09:13:00.053Z,17.30
2022-10-30T09:15:29.277Z,17.40
2022-10-30T09:18:03.251Z,17.50
2022-10-30T09:20:33.155Z,17.50
2022-10-30T09:23:02.151Z,17.50
2022-10-30T09:25:30.746Z,17.60
2022-10-30T09:27:59.302Z,17.70
2022-10-30T09:30:28.187Z,17.80
2022-10-30T09:32:58.288Z,17.80
2022-10-30T09:35:27.488Z,17.80
2022-10-30T09:37:57.890Z,17.90
2022-10-30T09:40:41.498Z,17.90
2022-10-30T09:43:19.543Z,18.00
2022-10-30T09:46:01.832Z,18.00
2022-10-30T09:52:01.546Z,18.10
2022-10-30T09:54:42.468Z,18.20
2022-10-30T09:57:19.775Z,18.30
2022-10-30T09:59:59.096Z,18.30
2022-10-30T10:02:35.097Z,18.40
2022-10-30T10:05:12.631Z,18.40
2022-10-30T10:07:44.731Z,18.50
2022-10-30T10:10:19.740Z,18.50
2022-10-30T10:12:50.860Z,18.50
2022-10-30T10:15:26.726Z,18.60
2022-10-30T10:17:56.642Z,18.60
2022-10-30T10:20:31.267Z,18.70
2022-10-30T10:23:05.274Z,18.70
2022-10-30T10:25:37.072Z,18.80
2022-10-30T10:28:20.332Z,18.80
2022-10-30T10:30:56.762Z,18.90
2022-10-30T10:33:35.566Z,19.00
2022-10-30T10:36:18.318Z,19.00
2022-10-30T10:38:58.364Z,19.10
2022-10-30T10:41:39.381Z,19.20
2022-10-30T10:44:23.247Z,19.20
2022-10-30T10:47:07.535Z,19.30
2022-10-30T10:49:53.942Z,19.40
2022-10-30T10:52:24.926Z,19.50
2022-10-30T10:54:57.578Z,19.60
2022-10-30T10:57:31.053Z,19.60
2022-10-30T11:00:04.940Z,19.70
2022-10-30T11:02:41.306Z,19.80
2022-10-30T11:05:18.183Z,19.90
2022-10-30T11:07:49.991Z,19.90
2022-10-30T11:10:20.768Z,20.10
2022-10-30T11:12:50.735Z,20.20
2022-10-30T11:15:37.023Z,20.30
2022-10-30T11:18:08.043Z,20.30
2022-10-30T11:20:45.792Z,20.50
2022-10-30T11:23:35.166Z,20.60
2022-10-30T11:26:03.999Z,20.70
2022-10-30T11:28:52.227Z,20.80
2022-10-30T11:31:23.750Z,21.00
2022-10-30T11:33:52.938Z,21.10
2022-10-30T11:36:25.246Z,21.20
2022-10-30T11:38:57.488Z,21.30
2022-10-30T11:41:27.319Z,21.40
2022-10-30T11:43:56.873Z,21.60
2022-10-30T11:46:25.539Z,21.70
2022-10-30T11:48:55.610Z,21.90
2022-10-30T11:51:37.485Z,22.00
2022-10-30T11:54:06.618Z,22.10
2022-10-30T11:56:36.822Z,22.30
2022-10-30T11:59:08.086Z,22.40
2022-10-30T12:01:39.198Z,22.60
2022-10-30T12:04:23.799Z,22.70
2022-10-30T12:07:08.209Z,22.90
2022-10-30T12:09:44.265Z,23.00
2022-10-30T12:12:13.922Z,23.20
2022-10-30T12:14:43.610Z,23.40
2022-10-30T12:17:17.210Z,23.50
2022-10-30T12:19:51.511Z,23.60
2022-10-30T12:22:31.416Z,23.80
2022-10-30T12:25:03.282Z,24.00
2022-10-30T12:27:33.339Z,24.10
2022-10-30T12:30:09.935Z,24.20
2022-10-30T12:32:46.934Z,24.30
2022-10-30T12:35:36.863Z,24.50
2022-10-30T12:38:14.029Z,24.60
2022-10-30T12:40:48.366Z,24.70
2022-10-30T12:43:20.780Z,24.80
2022-10-30T12:45:55.438Z,24.90
2022-10-30T12:48:27.704Z,25.00
2022-10-30T12:51:11.502Z,25.10
2022-10-30T12:53:45.615Z,25.20
2022-10-30T12:56:18.112Z,25.30
2022-10-30T12:58:52.319Z,25.40
2022-10-30T13:01:28.518Z,25.50
2022-10-30T13:04:07.591Z,25.60
2022-10-30T13:06:41.390Z,25.70
2022-10-30T13:09:19.831Z,25.80
2022-10-30T13:11:53.796Z,25.90
2022-10-30T13:14:27.013Z,25.90
2022-10-30T13:16:56.920Z,26.00
2022-10-30T13:19:27.472Z,26.10
2022-10-30T13:22:04.004Z,26.20
2022-10-30T13:24:45.568Z,26.20
2022-10-30T13:27:19.510Z,26.30
2022-10-30T13:29:55.887Z,26.40
2022-10-30T13:32:41.138Z,26.50
2022-10-30T13:35:26.168Z,26.50
2022-10-30T13:38:02.658Z,26.60
2022-10-30T13:40:37.508Z,26.70
2022-10-30T13:43:18.491Z,26.70
2022-10-30T13:46:00.679Z,26.80
2022-10-30T13:48:44.609Z,26.90
2022-10-30T13:51:36.527Z,26.90
2022-10-30T13:54:15.703Z,27.00
2022-10-30T13:56:45.523Z,27.10
2022-10-30T13:59:27.734Z,27.20
2022-10-30T14:02:02.851Z,27.30
2022-10-30T14:04:37.744Z,27.40
2022-10-30T14:07:21.425Z,27.40
2022-10-30T14:09:59.815Z,27.40
2022-10-30T14:12:54.163Z,27.40
2022-10-30T14:15:34.926Z,27.40
2022-10-30T14:18:26.709Z,27.30
2022-10-30T14:20:59.182Z,27.20
2022-10-30T14:23:33.070Z,27.10
2022-10-30T14:26:23.116Z,27.00
2022-10-30T14:28:56.523Z,26.90
2022-10-30T14:31:35.587Z,26.90
2022-10-30T14:34:04.323Z,26.80
2022-10-30T14:36:52.097Z,26.70
2022-10-30T14:39:30.617Z,26.60
2022-10-30T14:42:10.206Z,26.50
2022-10-30T14:44:57.933Z,26.40
2022-10-30T14:48:03.627Z,26.20
2022-10-30T14:50:58.309Z,26.10
2022-10-30T14:53:58.366Z,25.90
2022-10-30T14:56:36.494Z,25.70
2022-10-30T14:59:21.666Z,25.60
2022-10-30T15:01:56.628Z,25.40
2022-10-30T15:04:35.649Z,25.20
2022-10-30T15:07:10.005Z,25.10
2022-10-30T15:09:54.406Z,24.90
2022-10-30T15:12:37.357Z,24.80
2022-10-30T15:15:11.267Z,24.70
2022-10-30T15:17:42.531Z,24.60
2022-10-30T15:20:18.177Z,24.40
2022-10-30T15:22:49.454Z,24.30
2022-10-30T15:25:22.167Z,24.20
2022-10-30T15:27:54.282Z,24.10
2022-10-30T15:30:24.186Z,24.00
2022-10-30T15:32:52.509Z,23.90
2022-10-30T15:35:22.464Z,23.80
2022-10-30T15:38:05.904Z,23.70
2022-10-30T15:40:36.885Z,23.60
2022-10-30T15:43:07.596Z,23.50
2022-10-30T15:45:38.359Z,23.40
2022-10-30T15:48:10.229Z,23.30
2022-10-30T15:50:42.714Z,23.20
2022-10-30T15:53:19.390Z,23.10
2022-10-30T15:55:50.898Z,23.00
2022-10-30T15:58:23.516Z,23.00
2022-10-30T16:00:59.464Z,22.90
2022-10-30T16:03:28.431Z,22.80
2022-10-30T16:06:17.482Z,22.80
2022-10-30T16:08:47.732Z,22.70
2022-10-30T16:11:18.085Z,22.60
2022-10-30T16:13:46.648Z,22.60
2022-10-30T16:16:20.772Z,22.50
2022-10-30T16:18:49.793Z,22.40
2022-10-30T16:21:19.457Z,22.30
2022-10-30T16:23:53.303Z,22.30
2022-10-30T16:26:33.125Z,22.20
2022-10-30T16:29:10.000Z,22.10
2022-10-30T16:31:39.075Z,22.10
2022-10-30T16:34:12.321Z,22.00
2022-10-30T16:36:42.121Z,22.00
2022-10-30T16:39:15.120Z,21.90
2022-10-30T16:41:45.160Z,21.90
2022-10-30T16:44:19.202Z,21.80
2022-10-30T16:46:55.547Z,21.80
2022-10-30T16:49:27.448Z,21.70
2022-10-30T16:52:01.936Z,21.70
2022-10-30T16:54:33.554Z,21.60
2022-10-30T16:57:05.113Z,21.60
2022-10-30T16:59:36.763Z,21.50
2022-10-30T17:02:14.605Z,21.50
2022-10-30T17:04:48.666Z,21.40
2022-10-30T17:07:19.851Z,21.40
2022-10-30T17:09:49.583Z,21.30
2022-10-30T17:12:22.682Z,21.30
2022-10-30T17:14:54.137Z,21.20
2022-10-30T17:17:29.468Z,21.20
2022-10-30T17:20:02.949Z,21.10
2022-10-30T17:22:31.900Z,21.10
2022-10-30T17:25:01.052Z,21.00
2022-10-30T17:27:47.457Z,21.00
2022-10-30T17:30:35.573Z,20.90
2022-10-30T17:33:05.844Z,20.90
2022-10-30T17:35:35.663Z,20.80
2022-10-30T17:38:04.596Z,20.70
2022-10-30T17:40:32.931Z,20.70
2022-10-30T17:43:02.908Z,20.70
2022-10-30T17:45:30.994Z,20.60
2022-10-30T17:47:59.984Z,20.60
2022-10-30T17:50:28.328Z,20.60
2022-10-30T17:52:56.979Z,20.50
2022-10-30T17:55:29.955Z,20.50
2022-10-30T17:57:58.608Z,20.40
2022-10-30T18:00:28.694Z,20.40
2022-10-30T18:02:57.041Z,20.40
2022-10-30T18:05:29.203Z,20.40
2022-10-30T18:07:57.823Z,20.30
2022-10-30T18:10:25.975Z,20.30
2022-10-30T18:12:54.085Z,20.30
2022-10-30T18:15:30.919Z,20.20
2022-10-30T18:17:59.433Z,20.20
2022-10-30T18:20:28.365Z,20.20
2022-10-30T18:22:57.737Z,20.10
2022-10-30T18:25:27.728Z,20.10
2022-10-30T18:27:56.089Z,20.10
2022-10-30T18:30:24.375Z,20.00
2022-10-30T18:32:53.843Z,20.00
2022-10-30T18:35:29.411Z,20.00
2022-10-30T18:37:58.050Z,20.00
2022-10-30T18:40:26.798Z,19.90
2022-10-30T18:42:55.041Z,19.90
2022-10-30T18:45:25.504Z,19.90
2022-10-30T18:47:58.221Z,19.80
2022-10-30T18:50:26.583Z,19.80
2022-10-30T18:52:55.358Z,19.70
2022-10-30T18:55:25.540Z,19.70
2022-10-30T18:57:54.218Z,19.70
2022-10-30T19:00:25.880Z,19.60
2022-10-30T19:02:57.436Z,19.60
2022-10-30T19:05:31.924Z,19.60
2022-10-30T19:08:02.210Z,19.60
2022-10-30T19:10:32.448Z,19.60
2022-10-30T19:13:12.043Z,19.50
2022-10-30T19:15:43.097Z,19.50
2022-10-30T19:18:12.958Z,19.50
2022-10-30T19:21:03.307Z,19.50
2022-10-30T19:23:30.100Z,19.40
2022-10-30T19:25:58.858Z,19.40
2022-10-30T19:28:27.235Z,19.40
2022-10-30T19:30:55.795Z,19.30
2022-10-30T19:33:26.259Z,19.30
2022-10-30T19:35:55.707Z,19.30
2022-10-30T19:38:24.551Z,19.20
2022-10-30T19:40:53.001Z,19.20
2022-10-30T19:43:21.796Z,19.20
2022-10-30T19:45:52.859Z,19.20
2022-10-30T19:48:55.526Z,19.10
2022-10-30T19:51:13.465Z,19.10
2022-10-30T19:53:42.385Z,19.10
2022-10-30T19:56:12.227Z,19.00
2022-10-30T19:58:40.752Z,19.00
2022-10-30T20:01:08.911Z,19.00
2022-10-30T20:03:38.833Z,19.00
2022-10-30T20:06:07.763Z,18.90
2022-10-30T20:08:35.867Z,18.90
2022-10-30T20:11:04.006Z,18.90
2022-10-30T20:13:33.338Z,18.80
2022-10-30T20:16:05.003Z,18.80
2022-10-30T20:18:35.492Z,18.80
2022-10-30T20:21:08.439Z,18.80
2022-10-30T20:23:37.466Z,18.80
2022-10-30T20:26:08.033Z,18.80
2022-10-30T20:28:38.700Z,18.70
2022-10-30T20:31:07.885Z,18.80
2022-10-30T20:33:36.616Z,18.70
2022-10-30T20:36:06.872Z,18.70
2022-10-30T20:38:36.265Z,18.70
2022-10-30T20:41:05.786Z,18.60
2022-10-30T20:43:35.418Z,18.60
2022-10-30T20:46:05.646Z,18.60
2022-10-30T20:48:33.821Z,18.50
2022-10-30T20:51:03.416Z,18.50
2022-10-30T20:53:32.882Z,18.40
2022-10-30T20:56:01.289Z,18.40
2022-10-30T20:58:29.859Z,18.40
2022-10-30T21:00:59.717Z,18.30
2022-10-30T21:03:28.319Z,18.30
2022-10-30T21:05:58.240Z,18.30
2022-10-30T21:08:26.620Z,18.20
2022-10-30T21:10:59.947Z,18.20
2022-10-30T21:13:28.322Z,18.20
2022-10-30T21:16:01.490Z,18.10
2022-10-30T21:18:30.141Z,18.10
2022-10-30T21:21:01.603Z,18.10
2022-10-30T21:23:30.630Z,18.10
2022-10-30T21:26:04.206Z,18.10
2022-10-30T21:28:32.947Z,18.10
2022-10-30T21:31:03.252Z,18.00
2022-10-30T21:33:32.335Z,18.00
2022-10-30T21:36:11.745Z,17.90
2022-10-30T21:38:43.302Z,17.90
2022-10-30T21:41:14.280Z,17.90
2022-10-30T21:43:42.549Z,17.90
2022-10-30T21:46:12.944Z,17.90
2022-10-30T21:48:41.774Z,17.90
2022-10-30T21:51:12.070Z,17.80
2022-10-30T21:53:41.651Z,17.80
2022-10-30T21:56:13.088Z,17.70
2022-10-30T21:58:41.930Z,17.70
2022-10-30T22:01:15.568Z,17.70
2022-10-30T22:03:44.236Z,17.70
2022-10-30T22:06:13.920Z,17.70
2022-10-30T22:08:42.098Z,17.60
2022-10-30T22:11:13.852Z,17.60
2022-10-30T22:13:42.365Z,17.60
2022-10-30T22:16:15.127Z,17.60
2022-10-30T22:18:43.437Z,17.60
2022-10-30T22:21:13.510Z,17.60
2022-10-30T22:23:42.612Z,17.60
2022-10-30T22:26:15.953Z,17.50
2022-10-30T22:28:45.350Z,17.50
2022-10-30T22:31:16.268Z,17.50
2022-10-30T22:33:44.933Z,17.50
2022-10-30T22:36:17.102Z,17.50
2022-10-30T22:38:46.117Z,17.50
2022-10-30T22:41:17.135Z,17.50
2022-10-30T22:43:47.802Z,17.40
2022-10-30T22:46:17.738Z,17.40
2022-10-30T22:48:46.856Z,17.40
2022-10-30T22:51:16.928Z,17.40
2022-10-30T22:53:46.197Z,17.40
2022-10-30T22:56:18.902Z,17.30
2022-10-30T22:58:48.984Z,17.30
2022-10-30T23:01:18.711Z,17.30
2022-10-30T23:03:47.809Z,17.30
2022-10-30T23:06:16.398Z,17.30
2022-10-30T23:08:44.500Z,17.30
2022-10-30T23:11:13.998Z,17.30
2022-10-30T23:13:45.314Z,17.20
2022-10-30T23:16:16.346Z,17.30
2022-10-30T23:18:45.289Z,17.20
2022-10-30T23:21:16.885Z,17.20
2022-10-30T23:23:46.581Z,17.20
2022-10-30T23:26:16.647Z,17.10
2022-10-30T23:28:47.242Z,17.10
2022-10-30T23:31:20.165Z,17.10
2022-10-30T23:33:48.898Z,17.10
2022-10-30T23:36:17.514Z,17.00
2022-10-30T23:38:46.344Z,17.00
2022-10-30T23:41:14.931Z,16.90
2022-10-30T23:43:43.024Z,16.90
2022-10-30T23:46:12.839Z,16.80
2022-10-30T23:48:40.964Z,16.70
2022-10-30T23:51:10.015Z,16.70
2022-10-30T23:53:38.161Z,16.70
2022-10-30T23:56:07.563Z,16.60
2022-10-30T23:58:35.766Z,16.60
